sensor_id;sensor_type;location;lat;lon;timestamp;P1;durP1;ratioP1;P2;durP2;ratioP2
13981;SDS011;7065;50.880;5.502;2022-11-20T00:00:57;27.88;;;20.50;;
13981;SDS011;7065;50.880;5.502;2022-11-20T00:03:28;32.05;;;21.88;;
13981;SDS011;7065;50.880;5.502;2022-11-20T00:05:54;32.33;;;22.02;;
13981;SDS011;7065;50.880;5.502;2022-11-20T00:08:25;29.27;;;20.88;;
13981;SDS011;7065;50.880;5.502;2022-11-20T00:10:51;29.20;;;19.92;;
13981;SDS011;7065;50.880;5.502;2022-11-20T00:13:16;32.13;;;21.80;;
13981;SDS011;7065;50.880;5.502;2022-11-20T00:15:42;32.55;;;21.63;;
13981;SDS011;7065;50.880;5.502;2022-11-20T00:18:07;34.10;;;22.38;;
13981;SDS011;7065;50.880;5.502;2022-11-20T00:20:33;32.65;;;21.60;;
13981;SDS011;7065;50.880;5.502;2022-11-20T00:22:59;34.85;;;22.67;;
13981;SDS011;7065;50.880;5.502;2022-11-20T00:25:25;31.58;;;22.17;;
13981;SDS011;7065;50.880;5.502;2022-11-20T00:27:50;34.03;;;23.27;;
13981;SDS011;7065;50.880;5.502;2022-11-20T00:30:16;33.00;;;21.63;;
13981;SDS011;7065;50.880;5.502;2022-11-20T00:32:42;32.85;;;21.75;;
13981;SDS011;7065;50.880;5.502;2022-11-20T00:35:08;36.05;;;23.90;;
13981;SDS011;7065;50.880;5.502;2022-11-20T00:37:33;32.78;;;22.30;;
13981;SDS011;7065;50.880;5.502;2022-11-20T00:39:59;34.35;;;21.67;;
13981;SDS011;7065;50.880;5.502;2022-11-20T00:42:24;35.38;;;23.52;;
13981;SDS011;7065;50.880;5.502;2022-11-20T00:44:50;33.20;;;21.75;;
13981;SDS011;7065;50.880;5.502;2022-11-20T00:47:16;33.03;;;22.30;;
13981;SDS011;7065;50.880;5.502;2022-11-20T00:49:41;36.65;;;23.50;;
13981;SDS011;7065;50.880;5.502;2022-11-20T00:52:07;33.30;;;22.92;;
13981;SDS011;7065;50.880;5.502;2022-11-20T00:54:33;36.78;;;22.25;;
13981;SDS011;7065;50.880;5.502;2022-11-20T00:56:58;34.85;;;23.30;;
13981;SDS011;7065;50.880;5.502;2022-11-20T00:59:24;33.78;;;21.73;;
13981;SDS011;7065;50.880;5.502;2022-11-20T01:01:49;35.47;;;22.88;;
13981;SDS011;7065;50.880;5.502;2022-11-20T01:04:16;35.40;;;22.55;;
13981;SDS011;7065;50.880;5.502;2022-11-20T01:06:41;40.22;;;23.50;;
13981;SDS011;7065;50.880;5.502;2022-11-20T01:09:11;37.95;;;24.83;;
13981;SDS011;7065;50.880;5.502;2022-11-20T01:11:39;33.05;;;22.40;;
13981;SDS011;7065;50.880;5.502;2022-11-20T01:14:09;33.33;;;23.05;;
13981;SDS011;7065;50.880;5.502;2022-11-20T01:16:38;33.55;;;22.05;;
13981;SDS011;7065;50.880;5.502;2022-11-20T01:19:06;35.75;;;23.15;;
13981;SDS011;7065;50.880;5.502;2022-11-20T01:21:35;46.38;;;27.33;;
13981;SDS011;7065;50.880;5.502;2022-11-20T01:24:03;53.45;;;30.35;;
13981;SDS011;7065;50.880;5.502;2022-11-20T01:26:31;63.67;;;33.92;;
13981;SDS011;7065;50.880;5.502;2022-11-20T01:28:58;60.33;;;32.33;;
13981;SDS011;7065;50.880;5.502;2022-11-20T01:33:52;33.47;;;23.00;;
13981;SDS011;7065;50.880;5.502;2022-11-20T01:36:19;39.10;;;24.25;;
13981;SDS011;7065;50.880;5.502;2022-11-20T01:38:46;44.92;;;28.40;;
13981;SDS011;7065;50.880;5.502;2022-11-20T01:41:12;34.17;;;23.27;;
13981;SDS011;7065;50.880;5.502;2022-11-20T01:44:00;30.17;;;20.42;;
13981;SDS011;7065;50.880;5.502;2022-11-20T01:46:27;30.73;;;20.90;;
13981;SDS011;7065;50.880;5.502;2022-11-20T01:51:26;34.58;;;22.75;;
13981;SDS011;7065;50.880;5.502;2022-11-20T01:53:56;33.17;;;21.85;;
13981;SDS011;7065;50.880;5.502;2022-11-20T01:56:24;32.10;;;21.52;;
13981;SDS011;7065;50.880;5.502;2022-11-20T01:58:52;34.80;;;22.85;;
13981;SDS011;7065;50.880;5.502;2022-11-20T02:01:21;33.72;;;21.75;;
13981;SDS011;7065;50.880;5.502;2022-11-20T02:03:47;32.90;;;21.45;;
13981;SDS011;7065;50.880;5.502;2022-11-20T02:06:16;33.25;;;21.25;;
13981;SDS011;7065;50.880;5.502;2022-11-20T02:08:48;33.17;;;22.65;;
13981;SDS011;7065;50.880;5.502;2022-11-20T02:11:13;34.78;;;23.13;;
13981;SDS011;7065;50.880;5.502;2022-11-20T02:13:39;31.98;;;22.02;;
13981;SDS011;7065;50.880;5.502;2022-11-20T02:16:22;31.58;;;21.88;;
13981;SDS011;7065;50.880;5.502;2022-11-20T02:18:50;31.42;;;21.58;;
13981;SDS011;7065;50.880;5.502;2022-11-20T02:21:24;35.42;;;23.02;;
13981;SDS011;7065;50.880;5.502;2022-11-20T02:29:28;32.60;;;22.80;;
13981;SDS011;7065;50.880;5.502;2022-11-20T02:31:58;32.58;;;21.95;;
13981;SDS011;7065;50.880;5.502;2022-11-20T02:34:27;31.77;;;21.13;;
13981;SDS011;7065;50.880;5.502;2022-11-20T02:36:53;31.65;;;22.00;;
13981;SDS011;7065;50.880;5.502;2022-11-20T02:39:20;32.13;;;22.83;;
13981;SDS011;7065;50.880;5.502;2022-11-20T02:41:48;35.75;;;23.08;;
13981;SDS011;7065;50.880;5.502;2022-11-20T02:44:13;32.22;;;23.08;;
13981;SDS011;7065;50.880;5.502;2022-11-20T02:46:39;34.95;;;22.92;;
13981;SDS011;7065;50.880;5.502;2022-11-20T02:49:05;31.98;;;22.25;;
13981;SDS011;7065;50.880;5.502;2022-11-20T02:51:31;32.70;;;22.52;;
13981;SDS011;7065;50.880;5.502;2022-11-20T02:53:57;36.47;;;23.88;;
13981;SDS011;7065;50.880;5.502;2022-11-20T02:56:23;32.47;;;21.92;;
13981;SDS011;7065;50.880;5.502;2022-11-20T02:58:49;36.55;;;23.10;;
13981;SDS011;7065;50.880;5.502;2022-11-20T03:01:15;34.85;;;23.23;;
13981;SDS011;7065;50.880;5.502;2022-11-20T03:03:40;35.13;;;23.38;;
13981;SDS011;7065;50.880;5.502;2022-11-20T03:06:06;32.85;;;23.65;;
13981;SDS011;7065;50.880;5.502;2022-11-20T03:08:32;32.58;;;22.13;;
13981;SDS011;7065;50.880;5.502;2022-11-20T03:11:02;34.47;;;22.52;;
13981;SDS011;7065;50.880;5.502;2022-11-20T03:13:29;33.72;;;22.77;;
13981;SDS011;7065;50.880;5.502;2022-11-20T03:15:54;32.70;;;21.23;;
13981;SDS011;7065;50.880;5.502;2022-11-20T03:18:20;31.85;;;21.77;;
13981;SDS011;7065;50.880;5.502;2022-11-20T03:20:46;32.30;;;22.05;;
13981;SDS011;7065;50.880;5.502;2022-11-20T03:23:11;29.92;;;22.40;;
13981;SDS011;7065;50.880;5.502;2022-11-20T03:25:37;29.40;;;21.27;;
13981;SDS011;7065;50.880;5.502;2022-11-20T03:28:03;31.80;;;21.75;;
13981;SDS011;7065;50.880;5.502;2022-11-20T03:30:29;31.77;;;21.27;;
13981;SDS011;7065;50.880;5.502;2022-11-20T03:32:54;32.88;;;22.27;;
13981;SDS011;7065;50.880;5.502;2022-11-20T03:35:20;30.90;;;21.40;;
13981;SDS011;7065;50.880;5.502;2022-11-20T03:37:46;32.10;;;21.40;;
13981;SDS011;7065;50.880;5.502;2022-11-20T03:40:11;32.80;;;22.80;;
13981;SDS011;7065;50.880;5.502;2022-11-20T03:42:37;33.00;;;21.75;;
13981;SDS011;7065;50.880;5.502;2022-11-20T03:45:15;33.00;;;21.52;;
13981;SDS011;7065;50.880;5.502;2022-11-20T03:47:42;29.27;;;19.95;;
13981;SDS011;7065;50.880;5.502;2022-11-20T03:50:09;29.63;;;21.48;;
13981;SDS011;7065;50.880;5.502;2022-11-20T03:52:37;36.67;;;21.65;;
13981;SDS011;7065;50.880;5.502;2022-11-20T03:55:03;31.67;;;21.95;;
13981;SDS011;7065;50.880;5.502;2022-11-20T03:57:29;31.15;;;22.10;;
13981;SDS011;7065;50.880;5.502;2022-11-20T03:59:55;31.85;;;22.67;;
13981;SDS011;7065;50.880;5.502;2022-11-20T04:02:21;29.02;;;20.20;;
13981;SDS011;7065;50.880;5.502;2022-11-20T04:04:47;31.67;;;20.70;;
13981;SDS011;7065;50.880;5.502;2022-11-20T04:07:12;31.15;;;21.23;;
13981;SDS011;7065;50.880;5.502;2022-11-20T04:09:38;31.45;;;20.98;;
13981;SDS011;7065;50.880;5.502;2022-11-20T04:12:04;30.77;;;21.30;;
13981;SDS011;7065;50.880;5.502;2022-11-20T04:14:29;28.20;;;20.08;;
13981;SDS011;7065;50.880;5.502;2022-11-20T04:16:55;30.70;;;21.17;;
13981;SDS011;7065;50.880;5.502;2022-11-20T04:19:21;27.17;;;20.20;;
13981;SDS011;7065;50.880;5.502;2022-11-20T04:21:46;35.00;;;20.92;;
13981;SDS011;7065;50.880;5.502;2022-11-20T04:24:13;30.02;;;21.73;;
13981;SDS011;7065;50.880;5.502;2022-11-20T04:26:38;32.10;;;21.63;;
13981;SDS011;7065;50.880;5.502;2022-11-20T04:29:04;32.35;;;22.50;;
13981;SDS011;7065;50.880;5.502;2022-11-20T04:31:33;32.22;;;20.60;;
13981;SDS011;7065;50.880;5.502;2022-11-20T04:34:00;30.52;;;21.50;;
13981;SDS011;7065;50.880;5.502;2022-11-20T04:36:28;29.38;;;20.10;;
13981;SDS011;7065;50.880;5.502;2022-11-20T04:38:54;30.55;;;21.67;;
13981;SDS011;7065;50.880;5.502;2022-11-20T04:41:22;30.17;;;20.95;;
13981;SDS011;7065;50.880;5.502;2022-11-20T04:43:50;36.65;;;22.52;;
13981;SDS011;7065;50.880;5.502;2022-11-20T04:46:28;35.55;;;22.48;;
13981;SDS011;7065;50.880;5.502;2022-11-20T04:48:55;34.33;;;22.48;;
13981;SDS011;7065;50.880;5.502;2022-11-20T04:51:21;36.13;;;23.15;;
13981;SDS011;7065;50.880;5.502;2022-11-20T04:53:48;41.03;;;24.75;;
13981;SDS011;7065;50.880;5.502;2022-11-20T04:56:13;42.95;;;24.75;;
13981;SDS011;7065;50.880;5.502;2022-11-20T04:58:40;42.38;;;24.80;;
13981;SDS011;7065;50.880;5.502;2022-11-20T05:03:36;46.17;;;27.13;;
13981;SDS011;7065;50.880;5.502;2022-11-20T05:06:06;42.72;;;26.17;;
13981;SDS011;7065;50.880;5.502;2022-11-20T05:08:32;41.42;;;24.98;;
13981;SDS011;7065;50.880;5.502;2022-11-20T05:11:02;40.75;;;24.35;;
13981;SDS011;7065;50.880;5.502;2022-11-20T05:13:29;47.13;;;25.85;;
13981;SDS011;7065;50.880;5.502;2022-11-20T05:15:54;43.30;;;25.65;;
13981;SDS011;7065;50.880;5.502;2022-11-20T05:18:20;45.47;;;25.67;;
13981;SDS011;7065;50.880;5.502;2022-11-20T05:20:46;45.38;;;27.05;;
13981;SDS011;7065;50.880;5.502;2022-11-20T05:23:11;43.70;;;25.40;;
13981;SDS011;7065;50.880;5.502;2022-11-20T05:25:37;49.20;;;27.17;;
13981;SDS011;7065;50.880;5.502;2022-11-20T05:28:02;44.60;;;26.40;;
13981;SDS011;7065;50.880;5.502;2022-11-20T05:30:28;45.80;;;25.50;;
13981;SDS011;7065;50.880;5.502;2022-11-20T05:32:54;46.40;;;27.52;;
13981;SDS011;7065;50.880;5.502;2022-11-20T05:35:19;47.42;;;26.50;;
13981;SDS011;7065;50.880;5.502;2022-11-20T05:37:45;44.55;;;26.25;;
13981;SDS011;7065;50.880;5.502;2022-11-20T05:40:11;50.28;;;27.35;;
13981;SDS011;7065;50.880;5.502;2022-11-20T05:42:37;48.33;;;27.75;;
13981;SDS011;7065;50.880;5.502;2022-11-20T05:45:03;51.10;;;27.75;;
13981;SDS011;7065;50.880;5.502;2022-11-20T05:47:33;47.58;;;26.90;;
13981;SDS011;7065;50.880;5.502;2022-11-20T05:49:59;49.78;;;27.48;;
13981;SDS011;7065;50.880;5.502;2022-11-20T05:52:29;50.22;;;28.23;;
13981;SDS011;7065;50.880;5.502;2022-11-20T05:54:55;52.70;;;30.00;;
13981;SDS011;7065;50.880;5.502;2022-11-20T05:57:21;52.40;;;27.85;;
13981;SDS011;7065;50.880;5.502;2022-11-20T05:59:47;55.10;;;29.73;;
13981;SDS011;7065;50.880;5.502;2022-11-20T06:02:12;54.25;;;28.77;;
13981;SDS011;7065;50.880;5.502;2022-11-20T06:04:38;54.63;;;29.65;;
13981;SDS011;7065;50.880;5.502;2022-11-20T06:07:06;51.25;;;28.05;;
13981;SDS011;7065;50.880;5.502;2022-11-20T06:09:33;52.15;;;27.50;;
13981;SDS011;7065;50.880;5.502;2022-11-20T06:11:59;49.17;;;26.80;;
13981;SDS011;7065;50.880;5.502;2022-11-20T06:14:24;52.08;;;28.95;;
13981;SDS011;7065;50.880;5.502;2022-11-20T06:16:50;50.53;;;29.52;;
13981;SDS011;7065;50.880;5.502;2022-11-20T06:19:16;51.33;;;29.20;;
13981;SDS011;7065;50.880;5.502;2022-11-20T06:21:41;53.33;;;27.77;;
13981;SDS011;7065;50.880;5.502;2022-11-20T06:24:08;57.05;;;28.33;;
13981;SDS011;7065;50.880;5.502;2022-11-20T06:26:36;53.97;;;28.92;;
13981;SDS011;7065;50.880;5.502;2022-11-20T06:29:01;50.65;;;27.90;;
13981;SDS011;7065;50.880;5.502;2022-11-20T06:31:27;49.85;;;27.52;;
13981;SDS011;7065;50.880;5.502;2022-11-20T06:33:53;51.85;;;27.25;;
13981;SDS011;7065;50.880;5.502;2022-11-20T06:36:21;50.50;;;28.20;;
13981;SDS011;7065;50.880;5.502;2022-11-20T06:38:47;53.80;;;28.58;;
13981;SDS011;7065;50.880;5.502;2022-11-20T06:41:14;58.25;;;27.92;;
13981;SDS011;7065;50.880;5.502;2022-11-20T06:43:41;49.45;;;27.75;;
13981;SDS011;7065;50.880;5.502;2022-11-20T06:46:08;55.85;;;28.52;;
13981;SDS011;7065;50.880;5.502;2022-11-20T06:48:35;51.42;;;28.40;;
13981;SDS011;7065;50.880;5.502;2022-11-20T06:51:05;57.25;;;29.80;;
13981;SDS011;7065;50.880;5.502;2022-11-20T06:53:32;56.97;;;27.17;;
13981;SDS011;7065;50.880;5.502;2022-11-20T06:55:58;51.22;;;27.55;;
13981;SDS011;7065;50.880;5.502;2022-11-20T06:58:26;50.33;;;26.90;;
13981;SDS011;7065;50.880;5.502;2022-11-20T07:00:53;59.22;;;28.83;;
13981;SDS011;7065;50.880;5.502;2022-11-20T07:03:19;50.13;;;27.58;;
13981;SDS011;7065;50.880;5.502;2022-11-20T07:05:45;56.50;;;29.05;;
13981;SDS011;7065;50.880;5.502;2022-11-20T07:08:11;51.78;;;28.13;;
13981;SDS011;7065;50.880;5.502;2022-11-20T07:10:37;49.90;;;26.48;;
13981;SDS011;7065;50.880;5.502;2022-11-20T07:13:03;55.53;;;28.77;;
13981;SDS011;7065;50.880;5.502;2022-11-20T07:15:28;55.25;;;29.30;;
13981;SDS011;7065;50.880;5.502;2022-11-20T07:17:54;52.45;;;28.05;;
13981;SDS011;7065;50.880;5.502;2022-11-20T07:20:20;56.50;;;28.50;;
13981;SDS011;7065;50.880;5.502;2022-11-20T07:22:46;60.58;;;29.30;;
13981;SDS011;7065;50.880;5.502;2022-11-20T07:25:11;51.65;;;27.90;;
13981;SDS011;7065;50.880;5.502;2022-11-20T07:27:37;53.70;;;27.23;;
13981;SDS011;7065;50.880;5.502;2022-11-20T07:30:03;48.40;;;28.33;;
13981;SDS011;7065;50.880;5.502;2022-11-20T07:32:29;50.13;;;27.80;;
13981;SDS011;7065;50.880;5.502;2022-11-20T07:34:55;51.63;;;27.85;;
13981;SDS011;7065;50.880;5.502;2022-11-20T07:37:21;53.95;;;27.67;;
13981;SDS011;7065;50.880;5.502;2022-11-20T07:39:46;55.38;;;30.67;;
13981;SDS011;7065;50.880;5.502;2022-11-20T07:42:12;53.65;;;28.58;;
13981;SDS011;7065;50.880;5.502;2022-11-20T07:44:39;47.33;;;26.92;;
13981;SDS011;7065;50.880;5.502;2022-11-20T07:47:04;49.78;;;27.20;;
13981;SDS011;7065;50.880;5.502;2022-11-20T07:49:30;50.65;;;27.58;;
13981;SDS011;7065;50.880;5.502;2022-11-20T07:51:56;54.10;;;29.30;;
13981;SDS011;7065;50.880;5.502;2022-11-20T07:54:22;52.30;;;29.75;;
13981;SDS011;7065;50.880;5.502;2022-11-20T07:56:48;52.35;;;29.50;;
13981;SDS011;7065;50.880;5.502;2022-11-20T07:59:14;52.85;;;28.67;;
13981;SDS011;7065;50.880;5.502;2022-11-20T08:01:40;51.90;;;27.50;;
13981;SDS011;7065;50.880;5.502;2022-11-20T08:04:07;49.80;;;26.95;;
13981;SDS011;7065;50.880;5.502;2022-11-20T08:06:33;50.40;;;27.73;;
13981;SDS011;7065;50.880;5.502;2022-11-20T08:08:59;47.38;;;26.33;;
13981;SDS011;7065;50.880;5.502;2022-11-20T08:11:24;54.90;;;28.38;;
13981;SDS011;7065;50.880;5.502;2022-11-20T08:14:09;50.58;;;25.48;;
13981;SDS011;7065;50.880;5.502;2022-11-20T08:16:41;51.28;;;27.38;;
13981;SDS011;7065;50.880;5.502;2022-11-20T08:19:13;46.47;;;26.88;;
13981;SDS011;7065;50.880;5.502;2022-11-20T08:21:40;49.28;;;26.85;;
13981;SDS011;7065;50.880;5.502;2022-11-20T08:24:07;45.00;;;26.50;;
13981;SDS011;7065;50.880;5.502;2022-11-20T08:26:34;47.60;;;27.25;;
13981;SDS011;7065;50.880;5.502;2022-11-20T08:29:00;46.25;;;25.45;;
13981;SDS011;7065;50.880;5.502;2022-11-20T08:31:27;43.35;;;25.60;;
13981;SDS011;7065;50.880;5.502;2022-11-20T08:33:53;42.30;;;24.05;;
13981;SDS011;7065;50.880;5.502;2022-11-20T08:36:19;41.10;;;24.08;;
13981;SDS011;7065;50.880;5.502;2022-11-20T08:38:49;44.85;;;24.88;;
13981;SDS011;7065;50.880;5.502;2022-11-20T08:41:16;46.80;;;24.83;;
13981;SDS011;7065;50.880;5.502;2022-11-20T08:43:59;40.90;;;22.73;;
13981;SDS011;7065;50.880;5.502;2022-11-20T08:46:27;48.40;;;25.98;;
13981;SDS011;7065;50.880;5.502;2022-11-20T08:48:58;45.28;;;25.58;;
13981;SDS011;7065;50.880;5.502;2022-11-20T08:51:24;38.35;;;23.02;;
13981;SDS011;7065;50.880;5.502;2022-11-20T08:53:50;43.67;;;24.92;;
13981;SDS011;7065;50.880;5.502;2022-11-20T08:56:16;44.13;;;23.60;;
13981;SDS011;7065;50.880;5.502;2022-11-20T08:58:42;42.00;;;23.73;;
13981;SDS011;7065;50.880;5.502;2022-11-20T09:01:08;44.25;;;23.95;;
13981;SDS011;7065;50.880;5.502;2022-11-20T09:03:35;43.80;;;24.13;;
13981;SDS011;7065;50.880;5.502;2022-11-20T09:06:02;45.65;;;24.23;;
13981;SDS011;7065;50.880;5.502;2022-11-20T09:08:30;44.55;;;23.80;;
13981;SDS011;7065;50.880;5.502;2022-11-20T09:10:56;46.80;;;25.45;;
13981;SDS011;7065;50.880;5.502;2022-11-20T09:13:23;45.70;;;23.83;;
13981;SDS011;7065;50.880;5.502;2022-11-20T09:15:53;47.72;;;25.27;;
13981;SDS011;7065;50.880;5.502;2022-11-20T09:18:24;38.40;;;22.63;;
13981;SDS011;7065;50.880;5.502;2022-11-20T09:20:50;37.47;;;22.45;;
13981;SDS011;7065;50.880;5.502;2022-11-20T09:23:15;41.33;;;23.17;;
13981;SDS011;7065;50.880;5.502;2022-11-20T09:25:42;44.42;;;24.65;;
13981;SDS011;7065;50.880;5.502;2022-11-20T09:28:08;39.50;;;23.98;;
13981;SDS011;7065;50.880;5.502;2022-11-20T09:30:34;45.00;;;24.92;;
13981;SDS011;7065;50.880;5.502;2022-11-20T09:33:00;40.50;;;22.48;;
13981;SDS011;7065;50.880;5.502;2022-11-20T09:35:26;42.58;;;24.00;;
13981;SDS011;7065;50.880;5.502;2022-11-20T09:37:51;44.45;;;24.13;;
13981;SDS011;7065;50.880;5.502;2022-11-20T09:42:51;43.67;;;24.52;;
13981;SDS011;7065;50.880;5.502;2022-11-20T09:50:50;43.92;;;24.08;;
13981;SDS011;7065;50.880;5.502;2022-11-20T09:53:42;43.92;;;24.02;;
13981;SDS011;7065;50.880;5.502;2022-11-20T09:56:14;46.22;;;24.52;;
13981;SDS011;7065;50.880;5.502;2022-11-20T09:58:45;39.50;;;23.20;;
13981;SDS011;7065;50.880;5.502;2022-11-20T10:01:16;40.30;;;23.52;;
13981;SDS011;7065;50.880;5.502;2022-11-20T10:03:45;46.95;;;24.33;;
13981;SDS011;7065;50.880;5.502;2022-11-20T10:06:24;47.35;;;25.17;;
13981;SDS011;7065;50.880;5.502;2022-11-20T10:08:57;44.65;;;24.00;;
13981;SDS011;7065;50.880;5.502;2022-11-20T10:14:16;47.95;;;24.02;;
13981;SDS011;7065;50.880;5.502;2022-11-20T10:25:26;45.33;;;24.35;;
13981;SDS011;7065;50.880;5.502;2022-11-20T10:28:11;44.20;;;23.73;;
13981;SDS011;7065;50.880;5.502;2022-11-20T10:31:00;49.05;;;24.17;;
13981;SDS011;7065;50.880;5.502;2022-11-20T10:33:33;48.00;;;23.95;;
13981;SDS011;7065;50.880;5.502;2022-11-20T10:38:54;48.67;;;23.85;;
13981;SDS011;7065;50.880;5.502;2022-11-20T10:41:29;52.35;;;23.77;;
13981;SDS011;7065;50.880;5.502;2022-11-20T10:46:30;45.08;;;24.02;;
13981;SDS011;7065;50.880;5.502;2022-11-20T10:49:02;46.75;;;24.90;;
13981;SDS011;7065;50.880;5.502;2022-11-20T10:57:11;43.97;;;23.35;;
13981;SDS011;7065;50.880;5.502;2022-11-20T11:02:24;46.22;;;23.92;;
13981;SDS011;7065;50.880;5.502;2022-11-20T11:05:05;47.40;;;23.85;;
13981;SDS011;7065;50.880;5.502;2022-11-20T11:07:56;47.35;;;25.88;;
13981;SDS011;7065;50.880;5.502;2022-11-20T11:10:39;48.75;;;26.50;;
13981;SDS011;7065;50.880;5.502;2022-11-20T11:13:23;50.72;;;29.20;;
13981;SDS011;7065;50.880;5.502;2022-11-20T11:15:53;44.45;;;23.85;;
13981;SDS011;7065;50.880;5.502;2022-11-20T11:18:23;50.25;;;25.20;;
13981;SDS011;7065;50.880;5.502;2022-11-20T11:20:54;42.75;;;23.75;;
13981;SDS011;7065;50.880;5.502;2022-11-20T11:26:06;43.33;;;22.77;;
13981;SDS011;7065;50.880;5.502;2022-11-20T11:31:26;42.42;;;22.13;;
13981;SDS011;7065;50.880;5.502;2022-11-20T11:34:06;42.00;;;22.27;;
13981;SDS011;7065;50.880;5.502;2022-11-20T11:36:42;43.63;;;21.88;;
13981;SDS011;7065;50.880;5.502;2022-11-20T11:39:18;38.10;;;21.10;;
13981;SDS011;7065;50.880;5.502;2022-11-20T11:41:46;37.55;;;21.23;;
13981;SDS011;7065;50.880;5.502;2022-11-20T11:44:30;36.05;;;20.67;;
13981;SDS011;7065;50.880;5.502;2022-11-20T11:47:21;32.80;;;19.52;;
13981;SDS011;7065;50.880;5.502;2022-11-20T11:58:06;37.30;;;19.35;;
13981;SDS011;7065;50.880;5.502;2022-11-20T12:00:44;29.83;;;17.25;;
13981;SDS011;7065;50.880;5.502;2022-11-20T12:03:38;26.27;;;17.35;;
13981;SDS011;7065;50.880;5.502;2022-11-20T12:06:11;32.28;;;17.92;;
13981;SDS011;7065;50.880;5.502;2022-11-20T12:14:16;14.55;;;11.02;;
13981;SDS011;7065;50.880;5.502;2022-11-20T12:16:48;13.77;;;9.23;;
13981;SDS011;7065;50.880;5.502;2022-11-20T12:19:15;8.82;;;7.03;;
13981;SDS011;7065;50.880;5.502;2022-11-20T12:22:02;8.80;;;6.35;;
13981;SDS011;7065;50.880;5.502;2022-11-20T12:24:51;8.13;;;5.65;;
13981;SDS011;7065;50.880;5.502;2022-11-20T12:32:45;6.90;;;4.53;;
13981;SDS011;7065;50.880;5.502;2022-11-20T12:43:29;7.85;;;3.78;;
13981;SDS011;7065;50.880;5.502;2022-11-20T12:49:16;6.85;;;3.30;;
13981;SDS011;7065;50.880;5.502;2022-11-20T13:07:15;7.03;;;2.72;;
13981;SDS011;7065;50.880;5.502;2022-11-20T13:09:46;6.97;;;2.20;;
13981;SDS011;7065;50.880;5.502;2022-11-20T13:12:23;6.70;;;2.00;;
13981;SDS011;7065;50.880;5.502;2022-11-20T13:15:13;5.25;;;2.00;;
13981;SDS011;7065;50.880;5.502;2022-11-20T13:18:00;5.18;;;1.98;;
13981;SDS011;7065;50.880;5.502;2022-11-20T13:20:27;4.30;;;2.17;;
13981;SDS011;7065;50.880;5.502;2022-11-20T13:22:55;4.82;;;2.13;;
13981;SDS011;7065;50.880;5.502;2022-11-20T13:25:31;1.83;;;1.67;;
13981;SDS011;7065;50.880;5.502;2022-11-20T13:28:00;9.05;;;1.98;;
13981;SDS011;7065;50.880;5.502;2022-11-20T13:30:29;4.78;;;2.20;;
13981;SDS011;7065;50.880;5.502;2022-11-20T13:32:56;2.22;;;1.63;;
13981;SDS011;7065;50.880;5.502;2022-11-20T13:40:26;5.13;;;1.40;;
13981;SDS011;7065;50.880;5.502;2022-11-20T13:46:00;3.58;;;1.20;;
13981;SDS011;7065;50.880;5.502;2022-11-20T13:48:38;1.95;;;1.45;;
13981;SDS011;7065;50.880;5.502;2022-11-20T13:51:14;3.85;;;1.33;;
13981;SDS011;7065;50.880;5.502;2022-11-20T13:59:41;2.63;;;1.33;;
13981;SDS011;7065;50.880;5.502;2022-11-20T14:02:21;3.80;;;1.73;;
13981;SDS011;7065;50.880;5.502;2022-11-20T14:04:51;4.38;;;2.42;;
13981;SDS011;7065;50.880;5.502;2022-11-20T14:07:19;6.95;;;2.55;;
13981;SDS011;7065;50.880;5.502;2022-11-20T14:09:53;6.05;;;2.60;;
13981;SDS011;7065;50.880;5.502;2022-11-20T14:12:30;3.95;;;2.53;;
13981;SDS011;7065;50.880;5.502;2022-11-20T14:14:57;4.55;;;2.65;;
13981;SDS011;7065;50.880;5.502;2022-11-20T14:17:24;5.28;;;2.58;;
13981;SDS011;7065;50.880;5.502;2022-11-20T14:19:58;6.80;;;2.90;;
13981;SDS011;7065;50.880;5.502;2022-11-20T14:22:37;3.58;;;2.67;;
13981;SDS011;7065;50.880;5.502;2022-11-20T14:27:38;4.80;;;2.72;;
13981;SDS011;7065;50.880;5.502;2022-11-20T14:30:11;9.65;;;3.20;;
13981;SDS011;7065;50.880;5.502;2022-11-20T14:32:39;7.55;;;3.55;;
13981;SDS011;7065;50.880;5.502;2022-11-20T14:35:08;5.40;;;2.85;;
13981;SDS011;7065;50.880;5.502;2022-11-20T14:37:37;4.90;;;3.33;;
13981;SDS011;7065;50.880;5.502;2022-11-20T14:40:14;6.68;;;3.63;;
13981;SDS011;7065;50.880;5.502;2022-11-20T14:42:46;6.07;;;3.63;;
13981;SDS011;7065;50.880;5.502;2022-11-20T14:45:12;5.88;;;3.92;;
13981;SDS011;7065;50.880;5.502;2022-11-20T14:47:39;4.93;;;3.55;;
13981;SDS011;7065;50.880;5.502;2022-11-20T14:50:08;3.38;;;3.00;;
13981;SDS011;7065;50.880;5.502;2022-11-20T14:52:40;5.93;;;3.45;;
13981;SDS011;7065;50.880;5.502;2022-11-20T14:55:26;5.95;;;3.53;;
13981;SDS011;7065;50.880;5.502;2022-11-20T14:57:57;10.60;;;4.10;;
13981;SDS011;7065;50.880;5.502;2022-11-20T15:00:25;4.60;;;3.30;;
13981;SDS011;7065;50.880;5.502;2022-11-20T15:02:51;6.75;;;3.88;;
13981;SDS011;7065;50.880;5.502;2022-11-20T15:05:22;6.13;;;3.85;;
13981;SDS011;7065;50.880;5.502;2022-11-20T15:07:52;7.65;;;4.32;;
13981;SDS011;7065;50.880;5.502;2022-11-20T15:10:33;6.20;;;4.65;;
13981;SDS011;7065;50.880;5.502;2022-11-20T15:13:03;5.25;;;4.00;;
13981;SDS011;7065;50.880;5.502;2022-11-20T15:18:15;8.20;;;4.82;;
13981;SDS011;7065;50.880;5.502;2022-11-20T15:20:43;7.25;;;5.13;;
13981;SDS011;7065;50.880;5.502;2022-11-20T15:23:13;5.78;;;4.65;;
13981;SDS011;7065;50.880;5.502;2022-11-20T15:25:41;8.48;;;5.22;;
13981;SDS011;7065;50.880;5.502;2022-11-20T15:28:13;8.73;;;5.32;;
13981;SDS011;7065;50.880;5.502;2022-11-20T15:30:55;7.22;;;5.47;;
13981;SDS011;7065;50.880;5.502;2022-11-20T15:33:21;6.47;;;5.13;;
13981;SDS011;7065;50.880;5.502;2022-11-20T15:35:47;6.18;;;5.20;;
13981;SDS011;7065;50.880;5.502;2022-11-20T15:38:13;6.40;;;4.88;;
13981;SDS011;7065;50.880;5.502;2022-11-20T15:40:39;8.93;;;4.90;;
13981;SDS011;7065;50.880;5.502;2022-11-20T15:43:05;9.35;;;5.10;;
13981;SDS011;7065;50.880;5.502;2022-11-20T15:45:39;6.10;;;4.63;;
13981;SDS011;7065;50.880;5.502;2022-11-20T15:48:09;6.30;;;4.40;;
13981;SDS011;7065;50.880;5.502;2022-11-20T15:50:41;6.72;;;4.05;;
13981;SDS011;7065;50.880;5.502;2022-11-20T15:53:14;5.18;;;3.35;;
13981;SDS011;7065;50.880;5.502;2022-11-20T15:55:40;4.30;;;3.40;;
13981;SDS011;7065;50.880;5.502;2022-11-20T15:58:05;4.18;;;3.17;;
13981;SDS011;7065;50.880;5.502;2022-11-20T16:00:31;3.20;;;2.67;;
13981;SDS011;7065;50.880;5.502;2022-11-20T16:02:57;3.65;;;2.53;;
13981;SDS011;7065;50.880;5.502;2022-11-20T16:05:22;2.58;;;2.33;;
13981;SDS011;7065;50.880;5.502;2022-11-20T16:07:48;5.45;;;2.25;;
13981;SDS011;7065;50.880;5.502;2022-11-20T16:10:15;2.63;;;1.92;;
13981;SDS011;7065;50.880;5.502;2022-11-20T16:12:41;2.08;;;1.90;;
13981;SDS011;7065;50.880;5.502;2022-11-20T16:15:25;3.05;;;2.17;;
13981;SDS011;7065;50.880;5.502;2022-11-20T16:18:10;2.47;;;1.92;;
13981;SDS011;7065;50.880;5.502;2022-11-20T16:20:37;2.20;;;2.00;;
13981;SDS011;7065;50.880;5.502;2022-11-20T16:23:03;2.00;;;1.80;;
13981;SDS011;7065;50.880;5.502;2022-11-20T16:25:30;2.30;;;2.10;;
13981;SDS011;7065;50.880;5.502;2022-11-20T16:27:56;3.35;;;2.25;;
13981;SDS011;7065;50.880;5.502;2022-11-20T16:30:22;2.78;;;2.58;;
13981;SDS011;7065;50.880;5.502;2022-11-20T16:32:48;3.05;;;2.47;;
13981;SDS011;7065;50.880;5.502;2022-11-20T16:35:13;3.60;;;2.72;;
13981;SDS011;7065;50.880;5.502;2022-11-20T16:37:39;4.25;;;3.00;;
13981;SDS011;7065;50.880;5.502;2022-11-20T16:40:05;4.10;;;3.30;;
13981;SDS011;7065;50.880;5.502;2022-11-20T16:42:35;3.90;;;3.50;;
13981;SDS011;7065;50.880;5.502;2022-11-20T16:45:02;5.40;;;4.22;;
13981;SDS011;7065;50.880;5.502;2022-11-20T16:47:33;5.22;;;3.60;;